Nordegg, Canada
Current Conditions -  °F | °C
As of 2:00 PM on Wednesday 17 Dec 2014 (Local Time) from CYET Reporting Station
Clear Clear  
Wind Chill: 12°   Ceiling: Unl
Heat Index: 12°   Visibility: 9mi
Dew Point: 10°   Wind: 2mph
Humidity: 92%   Direction: 270°W
Pressure: 29.76"   Gusts: NA
Location:  52.47°N, 116.08°W
Report Text: CYET 172100Z AUTO 27002KT 9SM CLR M11/M12 A2976 RMK SLP149
Loading
Personal Weather Stations






























Interactive Weather Map New forecast layout! Learn more

10-Day Weather Forecast

Advertisements
Track Severe Weather on mobile